Buoy 13526

sailwx.info

Track history (hours):
 
Tides and Currents Weather Stations Pressure Air Temp Water Temp Dewpoint Dewpoint Depression Visibility Wind Speed Wind Dir Waves Ship Positions

Drifting buoy 13526

Last reported at 2014-Oct-24 18:09 UTC. Time now 2014-Oct-24 18:51 UTC.
Position N 27°31' W 037°43'.

Water temperature 26.3 ° C

Date/timePositionNaut miles runAvg speedWind from/ knotsBaromVisibWave heightAir tempDewpointWater temp
2014-Oct-24 18:09N 27°31' W 037°43'0 1.5 26.3
2014-Oct-24 18:04N 27°31' W 037°42'1 0.6 26.3
2014-Oct-24 16:26N 27°31' W 037°41'1 0.8 26.3
2014-Oct-24 14:45N 27°31' W 037°43'0 0.0 26.3
2014-Oct-24 13:37N 27°31' W 037°43'0 0.0 26.2
2014-Oct-24 12:41N 27°31' W 037°43'115.3 26.2
2014-Oct-24 12:37N 27°30' W 037°43'0 0.0 26.2
2014-Oct-24 12:34N 27°30' W 037°43'0 0.0 26.2
2014-Oct-24 11:56N 27°30' W 037°43'0 0.0 26.2
2014-Oct-24 11:48N 27°30' W 037°43'0 0.0 26.2
2014-Oct-24 11:01N 27°30' W 037°43'1 7.5 26.2
2014-Oct-24 10:56N 27°31' W 037°44'0 0.0 26.2
2014-Oct-24 09:24N 27°31' W 037°44'0 0.2 26.2
2014-Oct-24 08:44N 27°31' W 037°43'0 0.3 26.2
2014-Oct-24 08:32N 27°31' W 037°43'0 0.1 26.2
2014-Oct-24 07:05N 27°31' W 037°44'0 0.1 26.2
2014-Oct-24 05:22N 27°31' W 037°43'0 0.0 26.2
2014-Oct-24 05:02N 27°31' W 037°43'113.7 26.2
2014-Oct-24 04:56N 27°32' W 037°42'0 0.0 26.2
2014-Oct-24 03:22N 27°32' W 037°42'0 0.0 26.2
2014-Oct-24 03:16N 27°32' W 037°42'0 0.0 26.2
2014-Oct-24 00:22N 27°32' W 037°42'1 0.8 26.2
2014-Oct-23 23:32N 27°31' W 037°43'0 0.0 26.2
2014-Oct-23 23:25N 27°31' W 037°43'0 0.0 26.2
2014-Oct-23 22:42N 27°31' W 037°43'1 7.9 26.2
2014-Oct-23 22:34N 27°32' W 037°42'0 0.0 26.2
2014-Oct-23 22:10N 27°32' W 037°42'1 0.6 26.2
2014-Oct-23 20:18N 27°34' W 037°43'1 0.6 26.2
2014-Oct-23 18:40N 27°35' W 037°42'0 0.0 26.3
2014-Oct-23 18:33N 27°35' W 037°42'0 0.0 26.3
2014-Oct-23 18:10N 27°35' W 037°42'0 0.0 26.3
2014-Oct-23 16:55N 27°35' W 037°42'0 0.0 26.3
2014-Oct-23 16:37N 27°35' W 037°42'0 0.0 26.3
2014-Oct-23 16:32N 27°35' W 037°42'1 0.8 26.3
2014-Oct-23 14:56N 27°35' W 037°44'1 0.5 26.3
2014-Oct-23 13:56N 27°35' W 037°44'1 1.3 26.3
2014-Oct-23 13:07N 27°35' W 037°43'1 5.6 26.3
2014-Oct-23 12:56N 27°35' W 037°44'0 0.0 26.3
2014-Oct-23 12:10N 27°35' W 037°44'0 0.1 26.2
2014-Oct-23 11:24N 27°35' W 037°45'1 6.0 26.2
2014-Oct-23 11:18N 27°35' W 037°45'0 0.0 26.2
2014-Oct-23 09:54N 27°35' W 037°45'0 0.0 26.2
2014-Oct-23 09:02N 27°35' W 037°45'0 2.6 26.2
2014-Oct-23 08:55N 27°35' W 037°45'1 0.5 26.2
2014-Oct-23 07:17N 27°34' W 037°45'1 6.7 26.2
2014-Oct-23 07:08N 27°35' W 037°45'0 0.0 26.2
2014-Oct-23 06:51N 27°35' W 037°45'0 0.0 26.2
2014-Oct-23 06:37N 27°35' W 037°45'1 0.8 26.2
2014-Oct-23 05:33N 27°34' W 037°45'0 0.0 26.2
2014-Oct-23 05:10N 27°34' W 037°45'0 5.8 26.2
2014-Oct-23 05:07N 27°35' W 037°45'0 0.0 26.2
2014-Oct-23 03:33N 27°35' W 037°45'1 0.3 26.2
2014-Oct-22 23:54N 27°35' W 037°46'0 0.0 26.3
2014-Oct-22 23:48N 27°35' W 037°46'0 0.0 26.3
2014-Oct-22 23:02N 27°35' W 037°46'326.3 26.3
2014-Oct-22 22:56N 27°37' W 037°44'0 0.0 26.3
2014-Oct-22 22:44N 27°37' W 037°44'0 0.0 26.3
2014-Oct-22 22:08N 27°37' W 037°44'0 0.0 26.3
2014-Oct-22 20:56N 27°37' W 037°44'0 0.0 26.3
2014-Oct-22 20:42N 27°37' W 037°44'0 0.0 26.3
2014-Oct-22 20:29N 27°37' W 037°44'0 0.1 26.3
2014-Oct-22 18:52N 27°37' W 037°43'2 1.1 26.3
2014-Oct-22 17:09N 27°36' W 037°46'0 1.1 26.4
2014-Oct-22 16:48N 27°37' W 037°45'0 0.1 26.4
2014-Oct-22 15:07N 27°37' W 037°45'1 0.2 26.4
2014-Oct-22 11:44N 27°37' W 037°46'112.4 26.3
2014-Oct-22 11:38N 27°38' W 037°47'0 0.0 26.3
2014-Oct-22 10:51N 27°38' W 037°47'0 0.0 26.3
2014-Oct-22 09:22N 27°38' W 037°47'0 0.5 26.3
2014-Oct-22 09:08N 27°38' W 037°47'0 1.4 26.3
2014-Oct-22 08:49N 27°38' W 037°47'1 0.5 26.3
2014-Oct-22 07:44N 27°38' W 037°47'2 8.4 26.3
2014-Oct-22 07:27N 27°37' W 037°45'248.1 26.3
2014-Oct-22 07:24N 27°37' W 037°47'0 0.0 26.3
2014-Oct-22 07:21N 27°37' W 037°47'1 4.9 26.3
2014-Oct-22 07:10N 27°38' W 037°46'1 0.7 26.3
2014-Oct-22 05:49N 27°37' W 037°47'0 3.1 26.3
2014-Oct-22 05:44N 27°38' W 037°47'0 0.0 26.3
2014-Oct-22 05:24N 27°38' W 037°47'1 0.6 26.3
2014-Oct-22 03:47N 27°38' W 037°48'0 0.0 26.3
2014-Oct-22 03:43N 27°38' W 037°48'0 4.4 26.3
2014-Oct-22 03:37N 27°38' W 037°49'0 0.0 26.3
2014-Oct-22 01:02N 27°38' W 037°49'0 0.0 26.3
2014-Oct-22 00:08N 27°38' W 037°49'0 0.2 26.3
2014-Oct-21 23:24N 27°38' W 037°49'1 1.0 26.3
2014-Oct-21 22:33N 27°38' W 037°48'1 6.5 26.3
2014-Oct-21 22:28N 27°38' W 037°47'0 0.0 26.3
2014-Oct-21 21:39N 27°38' W 037°47'1 0.9 26.3
2014-Oct-21 20:38N 27°39' W 037°48'1 1.0 26.3
2014-Oct-21 19:57N 27°38' W 037°48'1 1.3 26.3
2014-Oct-21 19:26N 27°39' W 037°48'0 0.0 26.4
2014-Oct-21 19:18N 27°39' W 037°48'0 0.0
2014-Oct-21 19:03N 27°39' W 037°48'1 4.7 26.4
2014-Oct-21 18:55N 27°39' W 037°48'0 0.0 26.4
2014-Oct-21 17:43N 27°39' W 037°48'0 0.0 26.4
2014-Oct-21 17:16N 27°39' W 037°48'0 0.0 26.4
2014-Oct-21 16:56N 27°39' W 037°48'1 0.8 26.4
2014-Oct-21 15:19N 27°40' W 037°49'0 0.1 26.4
2014-Oct-21 13:47N 27°40' W 037°49'0 0.4 26.3
2014-Oct-21 12:55N 27°40' W 037°49'0 0.4 26.3
2014-Oct-21 12:09N 27°40' W 037°49'0 0.7 26.3
2014-Oct-21 11:58N 27°41' W 037°49'0 0.0 26.3
2014-Oct-21 11:09N 27°41' W 037°49'0 0.0 26.3
2014-Oct-21 09:43N 27°41' W 037°49'0 0.0
2014-Oct-21 09:20N 27°41' W 037°49'167.8 26.3
2014-Oct-21 09:19N 27°41' W 037°50'0 0.0 26.3
2014-Oct-21 08:08N 27°41' W 037°50'0 0.7 26.4
2014-Oct-21 07:41N 27°40' W 037°50'127.7 26.4
2014-Oct-21 07:38N 27°40' W 037°48'116.1 26.4
2014-Oct-21 07:33N 27°41' W 037°50'0 0.0 26.4
2014-Oct-21 06:29N 27°41' W 037°50'0 0.0 26.4
2014-Oct-21 06:01N 27°41' W 037°50'0 2.9 26.4
2014-Oct-21 05:56N 27°41' W 037°50'0 0.5 26.4
2014-Oct-21 05:33N 27°41' W 037°50'0 4.3 26.4
2014-Oct-21 05:29N 27°41' W 037°50'0 0.0 26.4
2014-Oct-21 03:55N 27°41' W 037°50'0 4.8 26.4
2014-Oct-21 03:54N 27°41' W 037°50'0 3.9 26.4
2014-Oct-21 03:49N 27°41' W 037°50'0 0.0 26.4
2014-Oct-21 01:20N 27°41' W 037°50'131.1 26.4
2014-Oct-21 01:19N 27°41' W 037°50'0 0.0 26.4
2014-Oct-21 00:30N 27°41' W 037°50'0 0.0 26.4
2014-Oct-20 23:44N 27°41' W 037°50'0 0.0 26.4
2014-Oct-20 23:38N 27°41' W 037°50'0 0.0 26.4
2014-Oct-20 22:49N 27°41' W 037°50'0 0.0 26.4
2014-Oct-20 22:46N 27°41' W 037°50'0 0.0 26.4
2014-Oct-20 22:09N 27°41' W 037°50'218.1 26.4
2014-Oct-20 22:03N 27°41' W 037°52'1 2.3 26.4
2014-Oct-20 21:27N 27°42' W 037°51'1 0.6 26.4
2014-Oct-20 20:21N 27°42' W 037°51'1 1.3 26.5
2014-Oct-20 19:49N 27°41' W 037°51'0 0.2 26.4
2014-Oct-20 19:09N 27°41' W 037°51'1 0.8 26.5
2014-Oct-20 18:10N 27°42' W 037°52'2 3.1 26.5
2014-Oct-20 17:33N 27°42' W 037°50'1 3.6 26.5
2014-Oct-20 17:10N 27°43' W 037°51'0 0.0 26.5
2014-Oct-20 15:25N 27°43' W 037°51'1 0.5 26.5
2014-Oct-20 14:06N 27°43' W 037°51'0 0.0 26.5
2014-Oct-20 13:17N 27°43' W 037°51'1 5.3 26.5
2014-Oct-20 13:11N 27°43' W 037°51'0 0.0 26.5
2014-Oct-20 12:25N 27°43' W 037°51'0 0.0 26.5
2014-Oct-20 12:21N 27°43' W 037°51'0 0.0 26.5
2014-Oct-20 12:18N 27°43' W 037°51'0 0.0 26.5
2014-Oct-20 11:39N 27°43' W 037°51'0 0.0 26.5
2014-Oct-20 11:35N 27°43' W 037°51'114.9 26.5
2014-Oct-20 11:32N 27°43' W 037°52'1 0.9 26.5
2014-Oct-20 10:43N 27°44' W 037°52'0 5.8 26.5
2014-Oct-20 10:40N 27°44' W 037°51'0 0.0 26.5
2014-Oct-20 09:50N 27°44' W 037°51'0 0.6 26.5
2014-Oct-20 09:27N 27°44' W 037°51'0 0.4
2014-Oct-20 08:30N 27°44' W 037°52'0 1.2 26.5
2014-Oct-20 08:10N 27°44' W 037°51'0 0.1 26.6
2014-Oct-20 07:47N 27°44' W 037°51'0 4.9 26.5
2014-Oct-20 07:44N 27°44' W 037°51'0 0.3 26.5
2014-Oct-20 06:52N 27°44' W 037°51'0 0.0 26.6
2014-Oct-20 06:30N 27°44' W 037°51'0 0.0 26.6
2014-Oct-20 06:07N 27°44' W 037°51'0 0.0 26.6
2014-Oct-20 06:03N 27°44' W 037°51'0 0.0 26.6
2014-Oct-20 05:47N 27°44' W 037°51'0 4.4 26.6
2014-Oct-20 05:44N 27°44' W 037°51'1 8.1 26.6
2014-Oct-20 05:40N 27°44' W 037°51'0 0.0 26.6
2014-Oct-20 00:55N 27°44' W 037°51'0 0.1 26.6
2014-Oct-20 00:05N 27°44' W 037°51'0 0.4 26.6
2014-Oct-19 23:15N 27°44' W 037°52'1 0.9 26.6
2014-Oct-19 22:24N 27°45' W 037°52'0 0.0 26.6
2014-Oct-19 22:20N 27°45' W 037°52'126.4 26.6
2014-Oct-19 22:17N 27°44' W 037°51'0 0.0 26.6
2014-Oct-19 20:51N 27°44' W 037°51'1 0.9 26.7
2014-Oct-19 20:15N 27°44' W 037°50'1 1.3 26.7
2014-Oct-19 19:25N 27°44' W 037°52'111.7 26.7
2014-Oct-19 19:22N 27°44' W 037°51'0 0.0 26.7
2014-Oct-19 19:16N 27°44' W 037°51'0 0.0 26.7
2014-Oct-19 18:36N 27°44' W 037°51'0 0.1 26.7
2014-Oct-19 17:44N 27°44' W 037°51'1 3.0 26.7
2014-Oct-19 17:21N 27°45' W 037°50'1 0.4 26.7
2014-Oct-19 15:41N 27°45' W 037°50'1 0.5 26.7
2014-Oct-19 14:24N 27°45' W 037°50'0 0.4 26.7
2014-Oct-19 13:38N 27°45' W 037°50'0 0.1 26.7
2014-Oct-19 12:49N 27°45' W 037°50'0 0.8 26.7
2014-Oct-19 12:45N 27°45' W 037°50'0 4.9 26.7
2014-Oct-19 12:39N 27°45' W 037°50'0 0.0 26.7
2014-Oct-19 11:56N 27°45' W 037°50'1 9.9 26.7
2014-Oct-19 11:51N 27°46' W 037°51'0 0.2 26.7
2014-Oct-19 11:05N 27°46' W 037°51'0 4.8 26.7
2014-Oct-19 11:00N 27°46' W 037°51'1 0.3 26.7
2014-Oct-19 08:55N 27°46' W 037°50'1 3.2 26.7
2014-Oct-19 08:42N 27°46' W 037°51'0 0.2 26.7
2014-Oct-19 08:06N 27°46' W 037°51'1 3.5 26.7
2014-Oct-19 07:56N 27°46' W 037°50'1 1.8 26.7
2014-Oct-19 07:20N 27°45' W 037°52'1 2.6 26.7
2014-Oct-19 07:04N 27°46' W 037°52'1 1.4 26.7
2014-Oct-19 06:21N 27°46' W 037°53'2 3.7 26.7
2014-Oct-19 05:55N 27°45' W 037°52'0 8.5 26.7
2014-Oct-19 05:52N 27°45' W 037°51'0 0.1 26.7
2014-Oct-19 04:17N 27°45' W 037°51'1 0.2 26.7
2014-Oct-19 01:10N 27°45' W 037°50'0 0.0 26.8
2014-Oct-19 00:26N 27°45' W 037°50'1 1.0 26.8
2014-Oct-18 23:37N 27°44' W 037°51'0 3.3 26.8
2014-Oct-18 23:32N 27°44' W 037°51'0 2.6 26.8
2014-Oct-18 23:29N 27°44' W 037°51'0 0.0 26.8
2014-Oct-18 22:41N 27°44' W 037°51'0 0.0 26.8
2014-Oct-18 22:40N 27°44' W 037°51'0 0.0 26.8
2014-Oct-18 21:34N 27°44' W 037°51'0 0.4 26.8
2014-Oct-18 20:40N 27°44' W 037°50'1 1.0 26.8
2014-Oct-18 19:47N 27°44' W 037°51'0 0.0 26.8
2014-Oct-18 19:36N 27°44' W 037°51'0 0.0 26.8
2014-Oct-18 19:02N 27°44' W 037°51'0 0.5 26.8
2014-Oct-18 18:56N 27°44' W 037°51'0 0.4 26.9
2014-Oct-18 17:56N 27°44' W 037°51'0 0.9 26.8
2014-Oct-18 17:32N 27°44' W 037°51'0 0.0 26.9
2014-Oct-18 17:27N 27°44' W 037°51'0 0.0 26.9
2014-Oct-18 15:50N 27°45' W 037°51'0 0.1 26.9
2014-Oct-18 14:00N 27°45' W 037°51'0 0.2 26.9
2014-Oct-18 12:16N 27°45' W 037°51'0 9.9
2014-Oct-18 12:13N 27°45' W 037°51'0 0.0 26.9
2014-Oct-18 11:27N 27°45' W 037°51'0 1.6 26.9
2014-Oct-18 11:19N 27°45' W 037°51'0 0.0 26.9
2014-Oct-18 09:26N 27°45' W 037°51'0 1.2 26.9
2014-Oct-18 09:10N 27°45' W 037°51'0 0.1 26.8
2014-Oct-18 08:10N 27°45' W 037°51'0 7.5 26.9
2014-Oct-18 08:07N 27°45' W 037°52'0 0.0 26.9
2014-Oct-18 07:44N 27°45' W 037°52'0 2.1 26.9
2014-Oct-18 07:35N 27°45' W 037°51'1 1.2 26.9
2014-Oct-18 06:35N 27°45' W 037°53'0 0.0 26.9
2014-Oct-18 06:31N 27°45' W 037°53'1 7.1 26.9
2014-Oct-18 06:25N 27°44' W 037°52'0 0.0 26.9
2014-Oct-18 06:09N 27°44' W 037°52'0 8.8 26.9
2014-Oct-18 06:06N 27°44' W 037°52'0 0.0 26.9
2014-Oct-18 06:03N 27°44' W 037°52'0 0.1 26.9
2014-Oct-18 01:33N 27°44' W 037°52'0 0.2 26.9
2014-Oct-17 23:57N 27°44' W 037°52'0 0.6 27.0
2014-Oct-17 23:52N 27°44' W 037°52'2109.3
2014-Oct-17 23:51N 27°46' W 037°53'0 0.0 27.0
2014-Oct-17 23:05N 27°46' W 037°53'115.8 27.0
2014-Oct-17 23:00N 27°45' W 037°52'0 0.0 27.0
2014-Oct-17 22:11N 27°45' W 037°52'1 1.3
2014-Oct-17 21:03N 27°44' W 037°53'1 1.8 27.1
2014-Oct-17 20:16N 27°45' W 037°53'0 0.0 27.2
2014-Oct-17 19:47N 27°45' W 037°53'0 0.0 27.2
2014-Oct-17 19:25N 27°45' W 037°53'0 0.0 27.3
2014-Oct-17 19:18N 27°45' W 037°53'0 0.0 27.3
2014-Oct-17 18:07N 27°45' W 037°53'0 0.8 27.4
2014-Oct-17 17:44N 27°45' W 037°53'0 0.0 27.4
2014-Oct-17 17:43N 27°45' W 037°53'0 0.0 27.4
2014-Oct-17 16:03N 27°45' W 037°53'1 0.3 27.3
2014-Oct-17 14:19N 27°46' W 037°53'0 0.0 27.1
2014-Oct-17 12:44N 27°46' W 037°53'1 6.6 26.9
2014-Oct-17 12:36N 27°46' W 037°54'0 0.0 26.9
2014-Oct-17 12:31N 27°46' W 037°54'0 0.2 26.9
2014-Oct-17 11:51N 27°46' W 037°54'0 0.8 26.9
2014-Oct-17 11:45N 27°46' W 037°54'0 7.4 26.9
2014-Oct-17 11:41N 27°45' W 037°54'0 0.6 26.9
2014-Oct-17 10:55N 27°46' W 037°54'1 0.6 26.9
2014-Oct-17 09:49N 27°46' W 037°55'0 0.0 26.9
2014-Oct-17 09:44N 27°46' W 037°55'0 0.0 26.9
2014-Oct-17 08:26N 27°46' W 037°55'1 6.5 26.9
2014-Oct-17 08:21N 27°46' W 037°56'0 2.4 26.9
2014-Oct-17 08:17N 27°46' W 037°55'0 0.0 26.9
2014-Oct-17 08:08N 27°46' W 037°55'0 0.2 26.9
2014-Oct-17 06:46N 27°46' W 037°55'112.0 26.9
2014-Oct-17 06:43N 27°45' W 037°55'0 0.0 26.9
2014-Oct-17 06:22N 27°45' W 037°55'0 2.4 26.9
2014-Oct-17 06:14N 27°45' W 037°55'0 0.0 26.9
2014-Oct-17 04:41N 27°45' W 037°55'0 1.6 26.9
2014-Oct-17 04:37N 27°45' W 037°55'1 0.6 26.9
2014-Oct-17 02:56N 27°44' W 037°55'0 0.0 26.9
2014-Oct-17 01:04N 27°44' W 037°55'0 0.0 26.9
2014-Oct-17 01:01N 27°44' W 037°55'0 0.0 26.9
2014-Oct-17 00:17N 27°44' W 037°55'0 0.1 26.9
2014-Oct-16 23:23N 27°44' W 037°55'119.4 26.9
2014-Oct-16 23:20N 27°45' W 037°54'0 0.3 26.9
2014-Oct-16 22:36N 27°45' W 037°54'0 5.6 26.9
2014-Oct-16 22:34N 27°45' W 037°54'157.7 26.9
2014-Oct-16 22:33N 27°45' W 037°55'0 0.0 26.9
2014-Oct-16 21:27N 27°45' W 037°55'0 0.0 27.0
2014-Oct-16 19:56N 27°45' W 037°55'0 2.1 27.0
2014-Oct-16 19:47N 27°45' W 037°56'0 0.6 27.0
2014-Oct-16 19:13N 27°45' W 037°55'0 0.4 27.0
2014-Oct-16 18:20N 27°45' W 037°56'0 0.0 27.0
2014-Oct-16 18:09N 27°45' W 037°56'1 0.2 27.0
2014-Oct-16 12:08N 27°46' W 037°56'1 6.1 26.9
2014-Oct-16 12:02N 27°47' W 037°56'1 0.8 26.9
2014-Oct-16 11:18N 27°47' W 037°57'1 0.2 26.9
2014-Oct-16 06:56N 27°47' W 037°58'0 7.2 26.9
2014-Oct-16 06:54N 27°47' W 037°57'1 1.9 26.9
2014-Oct-16 06:25N 27°47' W 037°59'0 0.0 26.9
2014-Oct-16 04:55N 27°47' W 037°59'1 0.6 26.9
2014-Oct-16 03:09N 27°47' W 037°57'1 0.2 26.9
2014-Oct-15 22:05N 27°46' W 037°57'0 0.1 27.0
2014-Oct-15 18:29N 27°46' W 037°57'1 3.1 27.1
2014-Oct-15 18:03N 27°47' W 037°56'1 0.6 27.1
2014-Oct-15 16:25N 27°47' W 037°55'1 0.3 27.1
2014-Oct-15 14:42N 27°47' W 037°56'0 0.0 27.1
2014-Oct-15 14:08N 27°47' W 037°56'1 1.4 27.1
2014-Oct-15 13:15N 27°48' W 037°55'0 0.0 27.1
2014-Oct-15 12:29N 27°48' W 037°55'0 0.0 27.1
2014-Oct-15 12:26N 27°48' W 037°55'0 0.3 27.1
2014-Oct-15 10:49N 27°48' W 037°55'1 0.3 27.1
2014-Oct-15 09:09N 27°48' W 037°56'1 5.9 27.1
2014-Oct-15 08:55N 27°48' W 037°54'1 8.2 27.1
2014-Oct-15 08:46N 27°48' W 037°56'1 0.7 27.1
2014-Oct-15 07:08N 27°49' W 037°56'0 0.0 27.1
2014-Oct-15 07:04N 27°49' W 037°56'0 0.0 27.1
2014-Oct-15 06:42N 27°49' W 037°56'1 0.5 27.1
2014-Oct-15 04:56N 27°49' W 037°56'132.0 27.2
2014-Oct-15 04:55N 27°49' W 037°56'0 0.0 27.2
2014-Oct-15 03:21N 27°49' W 037°56'1 0.3 27.2
2014-Oct-15 00:08N 27°49' W 037°55'1 0.2 27.2
2014-Oct-14 20:39N 27°50' W 037°56'0 0.0 27.2
2014-Oct-14 20:20N 27°50' W 037°56'0 0.0 27.2
2014-Oct-14 19:00N 27°50' W 037°56'0 0.0 27.3
2014-Oct-14 18:55N 27°50' W 037°56'1 2.7 27.3
2014-Oct-14 18:41N 27°50' W 037°55'0 0.0 27.3
2014-Oct-14 18:09N 27°50' W 037°55'   27.3
Track history (hours):
 
Tides and Currents Weather Stations Pressure Air Temp Water Temp Dewpoint Dewpoint Depression Visibility Wind Speed Wind Dir Waves Ship Positions

Drifting buoy 13526

Last reported at 2014-Oct-24 18:09 UTC. Time now 2014-Oct-24 18:51 UTC.
Position N 27°31' W 037°43'.

Water temperature 26.3 ° C

Date/timePositionNaut miles runAvg speedWind from/ knotsBaromVisibWave heightAir tempDewpointWater temp
2014-Oct-24 18:09N 27°31' W 037°43'0 1.5 26.3
2014-Oct-24 18:04N 27°31' W 037°42'1 0.6 26.3
2014-Oct-24 16:26N 27°31' W 037°41'1 0.8 26.3
2014-Oct-24 14:45N 27°31' W 037°43'0 0.0 26.3
2014-Oct-24 13:37N 27°31' W 037°43'0 0.0 26.2
2014-Oct-24 12:41N 27°31' W 037°43'115.3 26.2
2014-Oct-24 12:37N 27°30' W 037°43'0 0.0 26.2
2014-Oct-24 12:34N 27°30' W 037°43'0 0.0 26.2
2014-Oct-24 11:56N 27°30' W 037°43'0 0.0 26.2
2014-Oct-24 11:48N 27°30' W 037°43'0 0.0 26.2
2014-Oct-24 11:01N 27°30' W 037°43'1 7.5 26.2
2014-Oct-24 10:56N 27°31' W 037°44'0 0.0 26.2
2014-Oct-24 09:24N 27°31' W 037°44'0 0.2 26.2
2014-Oct-24 08:44N 27°31' W 037°43'0 0.3 26.2
2014-Oct-24 08:32N 27°31' W 037°43'0 0.1 26.2
2014-Oct-24 07:05N 27°31' W 037°44'0 0.1 26.2
2014-Oct-24 05:22N 27°31' W 037°43'0 0.0 26.2
2014-Oct-24 05:02N 27°31' W 037°43'113.7 26.2
2014-Oct-24 04:56N 27°32' W 037°42'0 0.0 26.2
2014-Oct-24 03:22N 27°32' W 037°42'0 0.0 26.2
2014-Oct-24 03:16N 27°32' W 037°42'0 0.0 26.2
2014-Oct-24 00:22N 27°32' W 037°42'1 0.8 26.2
2014-Oct-23 23:32N 27°31' W 037°43'0 0.0 26.2
2014-Oct-23 23:25N 27°31' W 037°43'0 0.0 26.2
2014-Oct-23 22:42N 27°31' W 037°43'1 7.9 26.2
2014-Oct-23 22:34N 27°32' W 037°42'0 0.0 26.2
2014-Oct-23 22:10N 27°32' W 037°42'1 0.6 26.2
2014-Oct-23 20:18N 27°34' W 037°43'1 0.6 26.2
2014-Oct-23 18:40N 27°35' W 037°42'0 0.0 26.3
2014-Oct-23 18:33N 27°35' W 037°42'0 0.0 26.3
2014-Oct-23 18:10N 27°35' W 037°42'0 0.0 26.3
2014-Oct-23 16:55N 27°35' W 037°42'0 0.0 26.3
2014-Oct-23 16:37N 27°35' W 037°42'0 0.0 26.3
2014-Oct-23 16:32N 27°35' W 037°42'1 0.8 26.3
2014-Oct-23 14:56N 27°35' W 037°44'1 0.5 26.3
2014-Oct-23 13:56N 27°35' W 037°44'1 1.3 26.3
2014-Oct-23 13:07N 27°35' W 037°43'1 5.6 26.3
2014-Oct-23 12:56N 27°35' W 037°44'0 0.0 26.3
2014-Oct-23 12:10N 27°35' W 037°44'0 0.1 26.2
2014-Oct-23 11:24N 27°35' W 037°45'1 6.0 26.2
2014-Oct-23 11:18N 27°35' W 037°45'0 0.0 26.2
2014-Oct-23 09:54N 27°35' W 037°45'0 0.0 26.2
2014-Oct-23 09:02N 27°35' W 037°45'0 2.6 26.2
2014-Oct-23 08:55N 27°35' W 037°45'1 0.5 26.2
2014-Oct-23 07:17N 27°34' W 037°45'1 6.7 26.2
2014-Oct-23 07:08N 27°35' W 037°45'0 0.0 26.2
2014-Oct-23 06:51N 27°35' W 037°45'0 0.0 26.2
2014-Oct-23 06:37N 27°35' W 037°45'1 0.8 26.2
2014-Oct-23 05:33N 27°34' W 037°45'0 0.0 26.2
2014-Oct-23 05:10N 27°34' W 037°45'0 5.8 26.2
2014-Oct-23 05:07N 27°35' W 037°45'0 0.0 26.2
2014-Oct-23 03:33N 27°35' W 037°45'1 0.3 26.2
2014-Oct-22 23:54N 27°35' W 037°46'0 0.0 26.3
2014-Oct-22 23:48N 27°35' W 037°46'0 0.0 26.3
2014-Oct-22 23:02N 27°35' W 037°46'326.3 26.3
2014-Oct-22 22:56N 27°37' W 037°44'0 0.0 26.3
2014-Oct-22 22:44N 27°37' W 037°44'0 0.0 26.3
2014-Oct-22 22:08N 27°37' W 037°44'0 0.0 26.3
2014-Oct-22 20:56N 27°37' W 037°44'0 0.0 26.3
2014-Oct-22 20:42N 27°37' W 037°44'0 0.0 26.3
2014-Oct-22 20:29N 27°37' W 037°44'0 0.1 26.3
2014-Oct-22 18:52N 27°37' W 037°43'2 1.1 26.3
2014-Oct-22 17:09N 27°36' W 037°46'0 1.1 26.4
2014-Oct-22 16:48N 27°37' W 037°45'0 0.1 26.4
2014-Oct-22 15:07N 27°37' W 037°45'1 0.2 26.4
2014-Oct-22 11:44N 27°37' W 037°46'112.4 26.3
2014-Oct-22 11:38N 27°38' W 037°47'0 0.0 26.3
2014-Oct-22 10:51N 27°38' W 037°47'0 0.0 26.3
2014-Oct-22 09:22N 27°38' W 037°47'0 0.5 26.3
2014-Oct-22 09:08N 27°38' W 037°47'0 1.4 26.3
2014-Oct-22 08:49N 27°38' W 037°47'1 0.5 26.3
2014-Oct-22 07:44N 27°38' W 037°47'2 8.4 26.3
2014-Oct-22 07:27N 27°37' W 037°45'248.1 26.3
2014-Oct-22 07:24N 27°37' W 037°47'0 0.0 26.3
2014-Oct-22 07:21N 27°37' W 037°47'1 4.9 26.3
2014-Oct-22 07:10N 27°38' W 037°46'1 0.7 26.3
2014-Oct-22 05:49N 27°37' W 037°47'0 3.1 26.3
2014-Oct-22 05:44N 27°38' W 037°47'0 0.0 26.3
2014-Oct-22 05:24N 27°38' W 037°47'1 0.6 26.3
2014-Oct-22 03:47N 27°38' W 037°48'0 0.0 26.3
2014-Oct-22 03:43N 27°38' W 037°48'0 4.4 26.3
2014-Oct-22 03:37N 27°38' W 037°49'0 0.0 26.3
2014-Oct-22 01:02N 27°38' W 037°49'0 0.0 26.3
2014-Oct-22 00:08N 27°38' W 037°49'0 0.2 26.3
2014-Oct-21 23:24N 27°38' W 037°49'1 1.0 26.3
2014-Oct-21 22:33N 27°38' W 037°48'1 6.5 26.3
2014-Oct-21 22:28N 27°38' W 037°47'0 0.0 26.3
2014-Oct-21 21:39N 27°38' W 037°47'1 0.9 26.3
2014-Oct-21 20:38N 27°39' W 037°48'1 1.0 26.3
2014-Oct-21 19:57N 27°38' W 037°48'1 1.3 26.3
2014-Oct-21 19:26N 27°39' W 037°48'0 0.0 26.4
2014-Oct-21 19:18N 27°39' W 037°48'0 0.0
2014-Oct-21 19:03N 27°39' W 037°48'1 4.7 26.4
2014-Oct-21 18:55N 27°39' W 037°48'0 0.0 26.4
2014-Oct-21 17:43N 27°39' W 037°48'0 0.0 26.4
2014-Oct-21 17:16N 27°39' W 037°48'0 0.0 26.4
2014-Oct-21 16:56N 27°39' W 037°48'1 0.8 26.4
2014-Oct-21 15:19N 27°40' W 037°49'0 0.1 26.4
2014-Oct-21 13:47N 27°40' W 037°49'0 0.4 26.3
2014-Oct-21 12:55N 27°40' W 037°49'0 0.4 26.3
2014-Oct-21 12:09N 27°40' W 037°49'0 0.7 26.3
2014-Oct-21 11:58N 27°41' W 037°49'0 0.0 26.3
2014-Oct-21 11:09N 27°41' W 037°49'0 0.0 26.3
2014-Oct-21 09:43N 27°41' W 037°49'0 0.0
2014-Oct-21 09:20N 27°41' W 037°49'167.8 26.3
2014-Oct-21 09:19N 27°41' W 037°50'0 0.0 26.3
2014-Oct-21 08:08N 27°41' W 037°50'0 0.7 26.4
2014-Oct-21 07:41N 27°40' W 037°50'127.7 26.4
2014-Oct-21 07:38N 27°40' W 037°48'116.1 26.4
2014-Oct-21 07:33N 27°41' W 037°50'0 0.0 26.4
2014-Oct-21 06:29N 27°41' W 037°50'0 0.0 26.4
2014-Oct-21 06:01N 27°41' W 037°50'0 2.9 26.4
2014-Oct-21 05:56N 27°41' W 037°50'0 0.5 26.4
2014-Oct-21 05:33N 27°41' W 037°50'0 4.3 26.4
2014-Oct-21 05:29N 27°41' W 037°50'0 0.0 26.4
2014-Oct-21 03:55N 27°41' W 037°50'0 4.8 26.4
2014-Oct-21 03:54N 27°41' W 037°50'0 3.9 26.4
2014-Oct-21 03:49N 27°41' W 037°50'0 0.0 26.4
2014-Oct-21 01:20N 27°41' W 037°50'131.1 26.4
2014-Oct-21 01:19N 27°41' W 037°50'0 0.0 26.4
2014-Oct-21 00:30N 27°41' W 037°50'0 0.0 26.4
2014-Oct-20 23:44N 27°41' W 037°50'0 0.0 26.4
2014-Oct-20 23:38N 27°41' W 037°50'0 0.0 26.4
2014-Oct-20 22:49N 27°41' W 037°50'0 0.0 26.4
2014-Oct-20 22:46N 27°41' W 037°50'0 0.0 26.4
2014-Oct-20 22:09N 27°41' W 037°50'218.1 26.4
2014-Oct-20 22:03N 27°41' W 037°52'1 2.3 26.4
2014-Oct-20 21:27N 27°42' W 037°51'1 0.6 26.4
2014-Oct-20 20:21N 27°42' W 037°51'1 1.3 26.5
2014-Oct-20 19:49N 27°41' W 037°51'0 0.2 26.4
2014-Oct-20 19:09N 27°41' W 037°51'1 0.8 26.5
2014-Oct-20 18:10N 27°42' W 037°52'2 3.1 26.5
2014-Oct-20 17:33N 27°42' W 037°50'1 3.6 26.5
2014-Oct-20 17:10N 27°43' W 037°51'0 0.0 26.5
2014-Oct-20 15:25N 27°43' W 037°51'1 0.5 26.5
2014-Oct-20 14:06N 27°43' W 037°51'0 0.0 26.5
2014-Oct-20 13:17N 27°43' W 037°51'1 5.3 26.5
2014-Oct-20 13:11N 27°43' W 037°51'0 0.0 26.5
2014-Oct-20 12:25N 27°43' W 037°51'0 0.0 26.5
2014-Oct-20 12:21N 27°43' W 037°51'0 0.0 26.5
2014-Oct-20 12:18N 27°43' W 037°51'0 0.0 26.5
2014-Oct-20 11:39N 27°43' W 037°51'0 0.0 26.5
2014-Oct-20 11:35N 27°43' W 037°51'114.9 26.5
2014-Oct-20 11:32N 27°43' W 037°52'1 0.9 26.5
2014-Oct-20 10:43N 27°44' W 037°52'0 5.8 26.5
2014-Oct-20 10:40N 27°44' W 037°51'0 0.0 26.5
2014-Oct-20 09:50N 27°44' W 037°51'0 0.6 26.5
2014-Oct-20 09:27N 27°44' W 037°51'0 0.4
2014-Oct-20 08:30N 27°44' W 037°52'0 1.2 26.5
2014-Oct-20 08:10N 27°44' W 037°51'0 0.1 26.6
2014-Oct-20 07:47N 27°44' W 037°51'0 4.9 26.5
2014-Oct-20 07:44N 27°44' W 037°51'0 0.3 26.5
2014-Oct-20 06:52N 27°44' W 037°51'0 0.0 26.6
2014-Oct-20 06:30N 27°44' W 037°51'0 0.0 26.6
2014-Oct-20 06:07N 27°44' W 037°51'0 0.0 26.6
2014-Oct-20 06:03N 27°44' W 037°51'0 0.0 26.6
2014-Oct-20 05:47N 27°44' W 037°51'0 4.4 26.6
2014-Oct-20 05:44N 27°44' W 037°51'1 8.1 26.6
2014-Oct-20 05:40N 27°44' W 037°51'0 0.0 26.6
2014-Oct-20 00:55N 27°44' W 037°51'0 0.1 26.6
2014-Oct-20 00:05N 27°44' W 037°51'0 0.4 26.6
2014-Oct-19 23:15N 27°44' W 037°52'1 0.9 26.6
2014-Oct-19 22:24N 27°45' W 037°52'0 0.0 26.6
2014-Oct-19 22:20N 27°45' W 037°52'126.4 26.6
2014-Oct-19 22:17N 27°44' W 037°51'0 0.0 26.6
2014-Oct-19 20:51N 27°44' W 037°51'1 0.9 26.7
2014-Oct-19 20:15N 27°44' W 037°50'1 1.3 26.7
2014-Oct-19 19:25N 27°44' W 037°52'111.7 26.7
2014-Oct-19 19:22N 27°44' W 037°51'0 0.0 26.7
2014-Oct-19 19:16N 27°44' W 037°51'0 0.0 26.7
2014-Oct-19 18:36N 27°44' W 037°51'0 0.1 26.7
2014-Oct-19 17:44N 27°44' W 037°51'1 3.0 26.7
2014-Oct-19 17:21N 27°45' W 037°50'1 0.4 26.7
2014-Oct-19 15:41N 27°45' W 037°50'1 0.5 26.7
2014-Oct-19 14:24N 27°45' W 037°50'0 0.4 26.7
2014-Oct-19 13:38N 27°45' W 037°50'0 0.1 26.7
2014-Oct-19 12:49N 27°45' W 037°50'0 0.8 26.7
2014-Oct-19 12:45N 27°45' W 037°50'0 4.9 26.7
2014-Oct-19 12:39N 27°45' W 037°50'0 0.0 26.7
2014-Oct-19 11:56N 27°45' W 037°50'1 9.9 26.7
2014-Oct-19 11:51N 27°46' W 037°51'0 0.2 26.7
2014-Oct-19 11:05N 27°46' W 037°51'0 4.8 26.7
2014-Oct-19 11:00N 27°46' W 037°51'1 0.3 26.7
2014-Oct-19 08:55N 27°46' W 037°50'1 3.2 26.7
2014-Oct-19 08:42N 27°46' W 037°51'0 0.2 26.7
2014-Oct-19 08:06N 27°46' W 037°51'1 3.5 26.7
2014-Oct-19 07:56N 27°46' W 037°50'1 1.8 26.7
2014-Oct-19 07:20N 27°45' W 037°52'1 2.6 26.7
2014-Oct-19 07:04N 27°46' W 037°52'1 1.4 26.7
2014-Oct-19 06:21N 27°46' W 037°53'2 3.7 26.7
2014-Oct-19 05:55N 27°45' W 037°52'0 8.5 26.7
2014-Oct-19 05:52N 27°45' W 037°51'0 0.1 26.7
2014-Oct-19 04:17N 27°45' W 037°51'1 0.2 26.7
2014-Oct-19 01:10N 27°45' W 037°50'0 0.0 26.8
2014-Oct-19 00:26N 27°45' W 037°50'1 1.0 26.8
2014-Oct-18 23:37N 27°44' W 037°51'0 3.3 26.8
2014-Oct-18 23:32N 27°44' W 037°51'0 2.6 26.8
2014-Oct-18 23:29N 27°44' W 037°51'0 0.0 26.8
2014-Oct-18 22:41N 27°44' W 037°51'0 0.0 26.8
2014-Oct-18 22:40N 27°44' W 037°51'0 0.0 26.8
2014-Oct-18 21:34N 27°44' W 037°51'0 0.4 26.8
2014-Oct-18 20:40N 27°44' W 037°50'1 1.0 26.8
2014-Oct-18 19:47N 27°44' W 037°51'0 0.0 26.8
2014-Oct-18 19:36N 27°44' W 037°51'0 0.0 26.8
2014-Oct-18 19:02N 27°44' W 037°51'0 0.5 26.8
2014-Oct-18 18:56N 27°44' W 037°51'0 0.4 26.9
2014-Oct-18 17:56N 27°44' W 037°51'0 0.9 26.8
2014-Oct-18 17:32N 27°44' W 037°51'0 0.0 26.9
2014-Oct-18 17:27N 27°44' W 037°51'0 0.0 26.9
2014-Oct-18 15:50N 27°45' W 037°51'0 0.1 26.9
2014-Oct-18 14:00N 27°45' W 037°51'0 0.2 26.9
2014-Oct-18 12:16N 27°45' W 037°51'0 9.9
2014-Oct-18 12:13N 27°45' W 037°51'0 0.0 26.9
2014-Oct-18 11:27N 27°45' W 037°51'0 1.6 26.9
2014-Oct-18 11:19N 27°45' W 037°51'0 0.0 26.9
2014-Oct-18 09:26N 27°45' W 037°51'0 1.2 26.9
2014-Oct-18 09:10N 27°45' W 037°51'0 0.1 26.8
2014-Oct-18 08:10N 27°45' W 037°51'0 7.5 26.9
2014-Oct-18 08:07N 27°45' W 037°52'0 0.0 26.9
2014-Oct-18 07:44N 27°45' W 037°52'0 2.1 26.9
2014-Oct-18 07:35N 27°45' W 037°51'1 1.2 26.9
2014-Oct-18 06:35N 27°45' W 037°53'0 0.0 26.9
2014-Oct-18 06:31N 27°45' W 037°53'1 7.1 26.9
2014-Oct-18 06:25N 27°44' W 037°52'0 0.0 26.9
2014-Oct-18 06:09N 27°44' W 037°52'0 8.8 26.9
2014-Oct-18 06:06N 27°44' W 037°52'0 0.0 26.9
2014-Oct-18 06:03N 27°44' W 037°52'0 0.1 26.9
2014-Oct-18 01:33N 27°44' W 037°52'0 0.2 26.9
2014-Oct-17 23:57N 27°44' W 037°52'0 0.6 27.0
2014-Oct-17 23:52N 27°44' W 037°52'2109.3
2014-Oct-17 23:51N 27°46' W 037°53'0 0.0 27.0
2014-Oct-17 23:05N 27°46' W 037°53'115.8 27.0
2014-Oct-17 23:00N 27°45' W 037°52'0 0.0 27.0
2014-Oct-17 22:11N 27°45' W 037°52'1 1.3
2014-Oct-17 21:03N 27°44' W 037°53'1 1.8 27.1
2014-Oct-17 20:16N 27°45' W 037°53'0 0.0 27.2
2014-Oct-17 19:47N 27°45' W 037°53'0 0.0 27.2
2014-Oct-17 19:25N 27°45' W 037°53'0 0.0 27.3
2014-Oct-17 19:18N 27°45' W 037°53'0 0.0 27.3
2014-Oct-17 18:07N 27°45' W 037°53'0 0.8 27.4
2014-Oct-17 17:44N 27°45' W 037°53'0 0.0 27.4
2014-Oct-17 17:43N 27°45' W 037°53'0 0.0 27.4
2014-Oct-17 16:03N 27°45' W 037°53'1 0.3 27.3
2014-Oct-17 14:19N 27°46' W 037°53'0 0.0 27.1
2014-Oct-17 12:44N 27°46' W 037°53'1 6.6 26.9
2014-Oct-17 12:36N 27°46' W 037°54'0 0.0 26.9
2014-Oct-17 12:31N 27°46' W 037°54'0 0.2 26.9
2014-Oct-17 11:51N 27°46' W 037°54'0 0.8 26.9
2014-Oct-17 11:45N 27°46' W 037°54'0 7.4 26.9
2014-Oct-17 11:41N 27°45' W 037°54'0 0.6 26.9
2014-Oct-17 10:55N 27°46' W 037°54'1 0.6 26.9
2014-Oct-17 09:49N 27°46' W 037°55'0 0.0 26.9
2014-Oct-17 09:44N 27°46' W 037°55'0 0.0 26.9
2014-Oct-17 08:26N 27°46' W 037°55'1 6.5 26.9
2014-Oct-17 08:21N 27°46' W 037°56'0 2.4 26.9
2014-Oct-17 08:17N 27°46' W 037°55'0 0.0 26.9
2014-Oct-17 08:08N 27°46' W 037°55'0 0.2 26.9
2014-Oct-17 06:46N 27°46' W 037°55'112.0 26.9
2014-Oct-17 06:43N 27°45' W 037°55'0 0.0 26.9
2014-Oct-17 06:22N 27°45' W 037°55'0 2.4 26.9
2014-Oct-17 06:14N 27°45' W 037°55'0 0.0 26.9
2014-Oct-17 04:41N 27°45' W 037°55'0 1.6 26.9
2014-Oct-17 04:37N 27°45' W 037°55'1 0.6 26.9
2014-Oct-17 02:56N 27°44' W 037°55'0 0.0 26.9
2014-Oct-17 01:04N 27°44' W 037°55'0 0.0 26.9
2014-Oct-17 01:01N 27°44' W 037°55'0 0.0 26.9
2014-Oct-17 00:17N 27°44' W 037°55'0 0.1 26.9
2014-Oct-16 23:23N 27°44' W 037°55'119.4 26.9
2014-Oct-16 23:20N 27°45' W 037°54'0 0.3 26.9
2014-Oct-16 22:36N 27°45' W 037°54'0 5.6 26.9
2014-Oct-16 22:34N 27°45' W 037°54'157.7 26.9
2014-Oct-16 22:33N 27°45' W 037°55'0 0.0 26.9
2014-Oct-16 21:27N 27°45' W 037°55'0 0.0 27.0
2014-Oct-16 19:56N 27°45' W 037°55'0 2.1 27.0
2014-Oct-16 19:47N 27°45' W 037°56'0 0.6 27.0
2014-Oct-16 19:13N 27°45' W 037°55'0 0.4 27.0
2014-Oct-16 18:20N 27°45' W 037°56'0 0.0 27.0
2014-Oct-16 18:09N 27°45' W 037°56'1 0.2 27.0
2014-Oct-16 12:08N 27°46' W 037°56'1 6.1 26.9
2014-Oct-16 12:02N 27°47' W 037°56'1 0.8 26.9
2014-Oct-16 11:18N 27°47' W 037°57'1 0.2 26.9
2014-Oct-16 06:56N 27°47' W 037°58'0 7.2 26.9
2014-Oct-16 06:54N 27°47' W 037°57'1 1.9 26.9
2014-Oct-16 06:25N 27°47' W 037°59'0 0.0 26.9
2014-Oct-16 04:55N 27°47' W 037°59'1 0.6 26.9
2014-Oct-16 03:09N 27°47' W 037°57'1 0.2 26.9
2014-Oct-15 22:05N 27°46' W 037°57'0 0.1 27.0
2014-Oct-15 18:29N 27°46' W 037°57'1 3.1 27.1
2014-Oct-15 18:03N 27°47' W 037°56'1 0.6 27.1
2014-Oct-15 16:25N 27°47' W 037°55'1 0.3 27.1
2014-Oct-15 14:42N 27°47' W 037°56'0 0.0 27.1
2014-Oct-15 14:08N 27°47' W 037°56'1 1.4 27.1
2014-Oct-15 13:15N 27°48' W 037°55'0 0.0 27.1
2014-Oct-15 12:29N 27°48' W 037°55'0 0.0 27.1
2014-Oct-15 12:26N 27°48' W 037°55'0 0.3 27.1
2014-Oct-15 10:49N 27°48' W 037°55'1 0.3 27.1
2014-Oct-15 09:09N 27°48' W 037°56'1 5.9 27.1
2014-Oct-15 08:55N 27°48' W 037°54'1 8.2 27.1
2014-Oct-15 08:46N 27°48' W 037°56'1 0.7 27.1
2014-Oct-15 07:08N 27°49' W 037°56'0 0.0 27.1
2014-Oct-15 07:04N 27°49' W 037°56'0 0.0 27.1
2014-Oct-15 06:42N 27°49' W 037°56'1 0.5 27.1
2014-Oct-15 04:56N 27°49' W 037°56'132.0 27.2
2014-Oct-15 04:55N 27°49' W 037°56'0 0.0 27.2
2014-Oct-15 03:21N 27°49' W 037°56'1 0.3 27.2
2014-Oct-15 00:08N 27°49' W 037°55'1 0.2 27.2
2014-Oct-14 20:39N 27°50' W 037°56'0 0.0 27.2
2014-Oct-14 20:20N 27°50' W 037°56'0 0.0 27.2
2014-Oct-14 19:00N 27°50' W 037°56'0 0.0 27.3
2014-Oct-14 18:55N 27°50' W 037°56'1 2.7 27.3
2014-Oct-14 18:41N 27°50' W 037°55'0 0.0 27.3
2014-Oct-14 18:09N 27°50' W 037°55'   27.3

Dump ship's entire track history